sensor_id;sensor_type;location;lat;lon;timestamp;temperature;humidity
68139;DHT22;54940;50.842;4.410;2022-09-17T00:00:55;11.50;99.90
68139;DHT22;54940;50.842;4.410;2022-09-17T00:03:22;11.50;99.90
68139;DHT22;54940;50.842;4.410;2022-09-17T00:05:57;11.50;99.90
68139;DHT22;54940;50.842;4.410;2022-09-17T00:08:22;11.50;99.90
68139;DHT22;54940;50.842;4.410;2022-09-17T00:10:48;11.50;99.90
68139;DHT22;54940;50.842;4.410;2022-09-17T00:13:14;11.40;99.90
68139;DHT22;54940;50.842;4.410;2022-09-17T00:15:44;11.50;99.90
68139;DHT22;54940;50.842;4.410;2022-09-17T00:18:10;11.50;99.90
68139;DHT22;54940;50.842;4.410;2022-09-17T00:20:38;11.40;99.90
68139;DHT22;54940;50.842;4.410;2022-09-17T00:23:04;11.40;99.90
68139;DHT22;54940;50.842;4.410;2022-09-17T00:25:29;11.50;99.90
68139;DHT22;54940;50.842;4.410;2022-09-17T00:27:55;11.40;99.90
68139;DHT22;54940;50.842;4.410;2022-09-17T00:30:21;11.40;99.90
68139;DHT22;54940;50.842;4.410;2022-09-17T00:32:47;11.30;99.90
68139;DHT22;54940;50.842;4.410;2022-09-17T00:35:12;11.40;99.90
68139;DHT22;54940;50.842;4.410;2022-09-17T00:37:38;11.40;99.90
68139;DHT22;54940;50.842;4.410;2022-09-17T00:40:04;11.40;99.90
68139;DHT22;54940;50.842;4.410;2022-09-17T00:42:29;11.30;99.90
68139;DHT22;54940;50.842;4.410;2022-09-17T00:44:56;11.20;99.90
68139;DHT22;54940;50.842;4.410;2022-09-17T00:50:17;11.30;99.90
68139;DHT22;54940;50.842;4.410;2022-09-17T00:52:58;11.30;99.90
68139;DHT22;54940;50.842;4.410;2022-09-17T00:55:28;11.20;99.90
68139;DHT22;54940;50.842;4.410;2022-09-17T00:57:58;11.20;99.90
68139;DHT22;54940;50.842;4.410;2022-09-17T01:00:25;11.20;99.90
68139;DHT22;54940;50.842;4.410;2022-09-17T01:02:52;11.40;99.90
68139;DHT22;54940;50.842;4.410;2022-09-17T01:05:21;11.50;99.90
68139;DHT22;54940;50.842;4.410;2022-09-17T01:08:00;11.60;99.90
68139;DHT22;54940;50.842;4.410;2022-09-17T01:22:11;11.60;99.90
68139;DHT22;54940;50.842;4.410;2022-09-17T01:33:39;11.70;99.90
68139;DHT22;54940;50.842;4.410;2022-09-17T01:39:31;11.70;99.90
68139;DHT22;54940;50.842;4.410;2022-09-17T01:47:43;11.70;99.90
68139;DHT22;54940;50.842;4.410;2022-09-17T01:50:14;11.70;99.90
68139;DHT22;54940;50.842;4.410;2022-09-17T01:52:43;11.60;99.90
68139;DHT22;54940;50.842;4.410;2022-09-17T01:55:13;11.70;99.90
68139;DHT22;54940;50.842;4.410;2022-09-17T01:57:49;11.60;99.90
68139;DHT22;54940;50.842;4.410;2022-09-17T02:00:17;11.80;99.90
68139;DHT22;54940;50.842;4.410;2022-09-17T02:02:57;11.70;99.90
68139;DHT22;54940;50.842;4.410;2022-09-17T02:05:49;11.80;99.90
68139;DHT22;54940;50.842;4.410;2022-09-17T02:08:20;11.70;99.90
68139;DHT22;54940;50.842;4.410;2022-09-17T02:11:04;11.60;99.90
68139;DHT22;54940;50.842;4.410;2022-09-17T02:16:27;11.70;99.90
68139;DHT22;54940;50.842;4.410;2022-09-17T02:19:18;11.70;99.90
68139;DHT22;54940;50.842;4.410;2022-09-17T02:22:02;11.60;99.90
68139;DHT22;54940;50.842;4.410;2022-09-17T02:24:31;11.50;99.90
68139;DHT22;54940;50.842;4.410;2022-09-17T02:29:34;11.40;99.90
68139;DHT22;54940;50.842;4.410;2022-09-17T02:32:01;11.50;99.90
68139;DHT22;54940;50.842;4.410;2022-09-17T02:34:27;11.50;99.90
68139;DHT22;54940;50.842;4.410;2022-09-17T02:36:54;11.60;99.90
68139;DHT22;54940;50.842;4.410;2022-09-17T02:39:20;11.50;99.90
68139;DHT22;54940;50.842;4.410;2022-09-17T02:41:54;11.50;99.90
68139;DHT22;54940;50.842;4.410;2022-09-17T02:44:27;11.60;99.90
68139;DHT22;54940;50.842;4.410;2022-09-17T02:47:10;11.70;99.90
68139;DHT22;54940;50.842;4.410;2022-09-17T02:57:41;11.80;99.90
68139;DHT22;54940;50.842;4.410;2022-09-17T03:00:18;11.90;99.90
68139;DHT22;54940;50.842;4.410;2022-09-17T03:02:49;12.00;99.90
68139;DHT22;54940;50.842;4.410;2022-09-17T03:05:18;11.90;99.90
68139;DHT22;54940;50.842;4.410;2022-09-17T03:07:44;11.90;99.90
68139;DHT22;54940;50.842;4.410;2022-09-17T03:10:10;11.90;99.90
68139;DHT22;54940;50.842;4.410;2022-09-17T03:12:37;11.80;99.90
68139;DHT22;54940;50.842;4.410;2022-09-17T03:15:04;11.80;99.90
68139;DHT22;54940;50.842;4.410;2022-09-17T03:17:30;11.90;99.90
68139;DHT22;54940;50.842;4.410;2022-09-17T03:19:55;11.80;99.90
68139;DHT22;54940;50.842;4.410;2022-09-17T03:22:21;11.80;99.90
68139;DHT22;54940;50.842;4.410;2022-09-17T03:24:47;11.70;99.90
68139;DHT22;54940;50.842;4.410;2022-09-17T03:27:12;11.70;99.90
68139;DHT22;54940;50.842;4.410;2022-09-17T03:29:38;11.60;99.90
68139;DHT22;54940;50.842;4.410;2022-09-17T03:32:04;11.60;99.90
68139;DHT22;54940;50.842;4.410;2022-09-17T03:34:30;11.70;99.90
68139;DHT22;54940;50.842;4.410;2022-09-17T03:36:55;11.60;99.90
68139;DHT22;54940;50.842;4.410;2022-09-17T03:39:21;11.50;99.90
68139;DHT22;54940;50.842;4.410;2022-09-17T03:41:47;11.40;99.90
68139;DHT22;54940;50.842;4.410;2022-09-17T03:44:12;11.40;99.90
68139;DHT22;54940;50.842;4.410;2022-09-17T03:46:39;11.40;99.90
68139;DHT22;54940;50.842;4.410;2022-09-17T03:49:05;11.50;99.90
68139;DHT22;54940;50.842;4.410;2022-09-17T03:51:31;11.40;99.90
68139;DHT22;54940;50.842;4.410;2022-09-17T03:53:56;11.30;99.90
68139;DHT22;54940;50.842;4.410;2022-09-17T03:56:22;11.20;99.90
68139;DHT22;54940;50.842;4.410;2022-09-17T03:58:48;11.30;99.90
68139;DHT22;54940;50.842;4.410;2022-09-17T04:01:13;11.30;99.90
68139;DHT22;54940;50.842;4.410;2022-09-17T04:03:39;11.30;99.90
68139;DHT22;54940;50.842;4.410;2022-09-17T04:06:05;11.20;99.90
68139;DHT22;54940;50.842;4.410;2022-09-17T04:08:31;11.10;99.90
68139;DHT22;54940;50.842;4.410;2022-09-17T04:10:57;11.10;99.90
68139;DHT22;54940;50.842;4.410;2022-09-17T04:13:23;11.10;99.90
68139;DHT22;54940;50.842;4.410;2022-09-17T04:15:48;10.90;99.90
68139;DHT22;54940;50.842;4.410;2022-09-17T04:18:14;10.80;99.90
68139;DHT22;54940;50.842;4.410;2022-09-17T04:20:40;10.90;99.90
68139;DHT22;54940;50.842;4.410;2022-09-17T04:23:06;11.00;99.90
68139;DHT22;54940;50.842;4.410;2022-09-17T04:25:32;10.90;99.90
68139;DHT22;54940;50.842;4.410;2022-09-17T04:27:58;11.00;99.90
68139;DHT22;54940;50.842;4.410;2022-09-17T04:30:23;11.00;99.90
68139;DHT22;54940;50.842;4.410;2022-09-17T04:32:49;11.00;99.90
68139;DHT22;54940;50.842;4.410;2022-09-17T04:35:15;10.90;99.90
68139;DHT22;54940;50.842;4.410;2022-09-17T04:37:40;10.80;99.90
68139;DHT22;54940;50.842;4.410;2022-09-17T04:40:07;10.80;99.90
68139;DHT22;54940;50.842;4.410;2022-09-17T04:42:33;10.70;99.90
68139;DHT22;54940;50.842;4.410;2022-09-17T04:44:58;10.70;99.90
68139;DHT22;54940;50.842;4.410;2022-09-17T04:47:24;10.70;99.90
68139;DHT22;54940;50.842;4.410;2022-09-17T04:49:50;10.70;99.90
68139;DHT22;54940;50.842;4.410;2022-09-17T04:52:16;10.70;99.90
68139;DHT22;54940;50.842;4.410;2022-09-17T04:54:42;10.80;99.90
68139;DHT22;54940;50.842;4.410;2022-09-17T04:57:08;10.80;99.90
68139;DHT22;54940;50.842;4.410;2022-09-17T04:59:33;10.90;99.90
68139;DHT22;54940;50.842;4.410;2022-09-17T05:01:59;10.90;99.90
68139;DHT22;54940;50.842;4.410;2022-09-17T05:04:24;10.90;99.90
68139;DHT22;54940;50.842;4.410;2022-09-17T05:06:50;10.80;99.90
68139;DHT22;54940;50.842;4.410;2022-09-17T05:09:16;10.80;99.90
68139;DHT22;54940;50.842;4.410;2022-09-17T05:11:41;10.80;99.90
68139;DHT22;54940;50.842;4.410;2022-09-17T05:14:07;10.90;99.90
68139;DHT22;54940;50.842;4.410;2022-09-17T05:16:33;10.90;99.90
68139;DHT22;54940;50.842;4.410;2022-09-17T05:18:58;10.90;99.90
68139;DHT22;54940;50.842;4.410;2022-09-17T05:21:24;11.00;99.90
68139;DHT22;54940;50.842;4.410;2022-09-17T05:23:50;11.00;99.90
68139;DHT22;54940;50.842;4.410;2022-09-17T05:26:15;11.10;99.90
68139;DHT22;54940;50.842;4.410;2022-09-17T05:28:41;11.10;99.90
68139;DHT22;54940;50.842;4.410;2022-09-17T05:31:07;11.10;99.90
68139;DHT22;54940;50.842;4.410;2022-09-17T05:33:33;11.10;99.90
68139;DHT22;54940;50.842;4.410;2022-09-17T05:35:59;11.10;99.90
68139;DHT22;54940;50.842;4.410;2022-09-17T05:38:24;11.10;99.90
68139;DHT22;54940;50.842;4.410;2022-09-17T05:40:50;11.10;99.90
68139;DHT22;54940;50.842;4.410;2022-09-17T05:43:16;11.10;99.90
68139;DHT22;54940;50.842;4.410;2022-09-17T05:45:42;11.10;99.90
68139;DHT22;54940;50.842;4.410;2022-09-17T05:48:12;11.10;99.90
68139;DHT22;54940;50.842;4.410;2022-09-17T05:50:38;11.10;99.90
68139;DHT22;54940;50.842;4.410;2022-09-17T05:53:06;11.20;99.90
68139;DHT22;54940;50.842;4.410;2022-09-17T05:55:32;11.10;99.90
68139;DHT22;54940;50.842;4.410;2022-09-17T05:57:59;11.10;99.90
68139;DHT22;54940;50.842;4.410;2022-09-17T06:00:26;11.10;99.90
68139;DHT22;54940;50.842;4.410;2022-09-17T06:02:57;11.20;99.90
68139;DHT22;54940;50.842;4.410;2022-09-17T06:05:23;11.20;99.90
68139;DHT22;54940;50.842;4.410;2022-09-17T06:07:49;11.20;99.90
68139;DHT22;54940;50.842;4.410;2022-09-17T06:10:16;11.30;99.90
68139;DHT22;54940;50.842;4.410;2022-09-17T06:12:41;11.40;99.90
68139;DHT22;54940;50.842;4.410;2022-09-17T06:15:07;11.50;99.90
68139;DHT22;54940;50.842;4.410;2022-09-17T06:17:34;11.60;99.90
68139;DHT22;54940;50.842;4.410;2022-09-17T06:20:01;11.70;99.90
68139;DHT22;54940;50.842;4.410;2022-09-17T06:22:26;11.70;99.90
68139;DHT22;54940;50.842;4.410;2022-09-17T06:24:52;11.70;99.90
68139;DHT22;54940;50.842;4.410;2022-09-17T06:27:18;11.70;99.90
68139;DHT22;54940;50.842;4.410;2022-09-17T06:29:43;11.50;99.90
68139;DHT22;54940;50.842;4.410;2022-09-17T06:32:09;11.50;99.90
68139;DHT22;54940;50.842;4.410;2022-09-17T06:34:40;11.50;99.90
68139;DHT22;54940;50.842;4.410;2022-09-17T06:37:05;11.60;99.90
68139;DHT22;54940;50.842;4.410;2022-09-17T06:39:31;11.60;99.90
68139;DHT22;54940;50.842;4.410;2022-09-17T06:41:57;11.70;99.90
68139;DHT22;54940;50.842;4.410;2022-09-17T06:44:23;11.70;99.90
68139;DHT22;54940;50.842;4.410;2022-09-17T06:46:49;11.60;99.90
68139;DHT22;54940;50.842;4.410;2022-09-17T06:49:15;11.70;99.90
68139;DHT22;54940;50.842;4.410;2022-09-17T06:51:42;11.70;99.90
68139;DHT22;54940;50.842;4.410;2022-09-17T06:54:08;11.80;99.90
68139;DHT22;54940;50.842;4.410;2022-09-17T06:56:34;11.70;99.90
68139;DHT22;54940;50.842;4.410;2022-09-17T06:59:00;11.70;99.90
68139;DHT22;54940;50.842;4.410;2022-09-17T07:01:26;11.80;99.90
68139;DHT22;54940;50.842;4.410;2022-09-17T07:03:52;11.90;99.90
68139;DHT22;54940;50.842;4.410;2022-09-17T07:06:17;11.90;99.90
68139;DHT22;54940;50.842;4.410;2022-09-17T07:08:43;11.90;99.90
68139;DHT22;54940;50.842;4.410;2022-09-17T07:11:08;11.90;99.90
68139;DHT22;54940;50.842;4.410;2022-09-17T07:13:34;12.10;99.90
68139;DHT22;54940;50.842;4.410;2022-09-17T07:16:01;12.40;99.90
68139;DHT22;54940;50.842;4.410;2022-09-17T07:18:27;12.30;99.90
68139;DHT22;54940;50.842;4.410;2022-09-17T07:21:03;12.30;99.90
68139;DHT22;54940;50.842;4.410;2022-09-17T07:23:32;12.20;99.90
68139;DHT22;54940;50.842;4.410;2022-09-17T07:26:01;12.20;99.90
68139;DHT22;54940;50.842;4.410;2022-09-17T07:28:27;12.00;99.90
68139;DHT22;54940;50.842;4.410;2022-09-17T07:30:54;11.90;99.90
68139;DHT22;54940;50.842;4.410;2022-09-17T07:33:25;12.00;99.90
68139;DHT22;54940;50.842;4.410;2022-09-17T07:35:56;11.90;99.90
68139;DHT22;54940;50.842;4.410;2022-09-17T07:38:22;11.90;99.90
68139;DHT22;54940;50.842;4.410;2022-09-17T07:40:59;12.00;99.90
68139;DHT22;54940;50.842;4.410;2022-09-17T07:43:26;12.10;99.90
68139;DHT22;54940;50.842;4.410;2022-09-17T07:45:52;12.20;99.90
68139;DHT22;54940;50.842;4.410;2022-09-17T07:48:19;12.30;99.90
68139;DHT22;54940;50.842;4.410;2022-09-17T07:50:46;12.30;99.90
68139;DHT22;54940;50.842;4.410;2022-09-17T07:53:11;12.40;99.90
68139;DHT22;54940;50.842;4.410;2022-09-17T07:55:37;12.40;99.90
68139;DHT22;54940;50.842;4.410;2022-09-17T07:58:03;12.50;99.90
68139;DHT22;54940;50.842;4.410;2022-09-17T08:00:29;12.50;99.90
68139;DHT22;54940;50.842;4.410;2022-09-17T08:02:55;12.60;99.90
68139;DHT22;54940;50.842;4.410;2022-09-17T08:05:21;12.80;99.90
68139;DHT22;54940;50.842;4.410;2022-09-17T08:07:51;12.90;99.90
68139;DHT22;54940;50.842;4.410;2022-09-17T08:10:18;13.00;99.90
68139;DHT22;54940;50.842;4.410;2022-09-17T08:12:47;12.90;99.90
68139;DHT22;54940;50.842;4.410;2022-09-17T08:15:14;12.90;99.90
68139;DHT22;54940;50.842;4.410;2022-09-17T08:17:46;13.00;99.90
68139;DHT22;54940;50.842;4.410;2022-09-17T08:20:13;12.90;99.90
68139;DHT22;54940;50.842;4.410;2022-09-17T08:22:39;12.80;99.90
68139;DHT22;54940;50.842;4.410;2022-09-17T08:25:06;12.60;99.90
68139;DHT22;54940;50.842;4.410;2022-09-17T08:27:32;12.50;99.90
68139;DHT22;54940;50.842;4.410;2022-09-17T08:29:58;12.60;99.90
68139;DHT22;54940;50.842;4.410;2022-09-17T08:32:24;12.60;99.90
68139;DHT22;54940;50.842;4.410;2022-09-17T08:34:50;12.70;99.90
68139;DHT22;54940;50.842;4.410;2022-09-17T08:37:18;12.80;99.90
68139;DHT22;54940;50.842;4.410;2022-09-17T08:39:44;12.90;99.90
68139;DHT22;54940;50.842;4.410;2022-09-17T08:44:51;13.30;99.90
68139;DHT22;54940;50.842;4.410;2022-09-17T08:47:32;13.70;99.90
68139;DHT22;54940;50.842;4.410;2022-09-17T08:50:03;14.20;99.90
68139;DHT22;54940;50.842;4.410;2022-09-17T09:00:52;13.60;99.90
68139;DHT22;54940;50.842;4.410;2022-09-17T09:06:01;13.50;99.90
68139;DHT22;54940;50.842;4.410;2022-09-17T09:08:37;13.80;99.90
68139;DHT22;54940;50.842;4.410;2022-09-17T09:11:13;14.00;99.90
68139;DHT22;54940;50.842;4.410;2022-09-17T09:13:48;14.20;99.90
68139;DHT22;54940;50.842;4.410;2022-09-17T09:16:22;14.20;99.90
68139;DHT22;54940;50.842;4.410;2022-09-17T09:19:10;14.10;99.90
68139;DHT22;54940;50.842;4.410;2022-09-17T09:21:56;13.90;99.90
68139;DHT22;54940;50.842;4.410;2022-09-17T09:24:35;13.80;99.90
68139;DHT22;54940;50.842;4.410;2022-09-17T09:27:26;13.70;99.90
68139;DHT22;54940;50.842;4.410;2022-09-17T09:30:00;13.90;99.90
68139;DHT22;54940;50.842;4.410;2022-09-17T09:34:53;14.00;99.90
68139;DHT22;54940;50.842;4.410;2022-09-17T09:37:34;13.90;99.90
68139;DHT22;54940;50.842;4.410;2022-09-17T09:42:47;13.70;99.90
68139;DHT22;54940;50.842;4.410;2022-09-17T09:45:18;13.80;99.90
68139;DHT22;54940;50.842;4.410;2022-09-17T09:59:24;13.70;99.90
68139;DHT22;54940;50.842;4.410;2022-09-17T10:01:50;14.00;99.90
68139;DHT22;54940;50.842;4.410;2022-09-17T10:04:17;14.20;99.90
68139;DHT22;54940;50.842;4.410;2022-09-17T10:06:45;14.30;99.90
68139;DHT22;54940;50.842;4.410;2022-09-17T10:09:13;14.50;99.90
68139;DHT22;54940;50.842;4.410;2022-09-17T10:11:39;14.60;99.90
68139;DHT22;54940;50.842;4.410;2022-09-17T10:14:25;14.50;99.90
68139;DHT22;54940;50.842;4.410;2022-09-17T10:19:42;14.70;99.90
68139;DHT22;54940;50.842;4.410;2022-09-17T10:22:31;14.70;99.90
68139;DHT22;54940;50.842;4.410;2022-09-17T10:24:59;14.50;99.90
68139;DHT22;54940;50.842;4.410;2022-09-17T10:27:26;14.60;99.90
68139;DHT22;54940;50.842;4.410;2022-09-17T10:32:33;14.20;99.90
68139;DHT22;54940;50.842;4.410;2022-09-17T10:37:49;13.90;99.90
68139;DHT22;54940;50.842;4.410;2022-09-17T10:45:38;14.00;99.90
68139;DHT22;54940;50.842;4.410;2022-09-17T10:48:16;14.10;99.90
68139;DHT22;54940;50.842;4.410;2022-09-17T10:50:51;14.10;99.90
68139;DHT22;54940;50.842;4.410;2022-09-17T10:53:18;14.10;99.90
68139;DHT22;54940;50.842;4.410;2022-09-17T10:55:53;14.20;99.90
68139;DHT22;54940;50.842;4.410;2022-09-17T10:58:34;14.10;99.90
68139;DHT22;54940;50.842;4.410;2022-09-17T11:01:19;14.10;99.90
68139;DHT22;54940;50.842;4.410;2022-09-17T11:12:12;14.10;99.90
68139;DHT22;54940;50.842;4.410;2022-09-17T11:17:47;14.40;99.90
68139;DHT22;54940;50.842;4.410;2022-09-17T11:26:38;14.30;99.90
68139;DHT22;54940;50.842;4.410;2022-09-17T11:32:07;14.00;99.90
68139;DHT22;54940;50.842;4.410;2022-09-17T11:34:41;13.90;99.90
68139;DHT22;54940;50.842;4.410;2022-09-17T11:37:24;13.90;99.90
68139;DHT22;54940;50.842;4.410;2022-09-17T11:40:05;13.90;99.90
68139;DHT22;54940;50.842;4.410;2022-09-17T11:42:58;13.90;99.90
68139;DHT22;54940;50.842;4.410;2022-09-17T11:45:35;13.90;99.90
68139;DHT22;54940;50.842;4.410;2022-09-17T11:50:36;14.00;99.90
68139;DHT22;54940;50.842;4.410;2022-09-17T11:53:24;13.90;99.90
68139;DHT22;54940;50.842;4.410;2022-09-17T11:56:13;14.00;99.90
68139;DHT22;54940;50.842;4.410;2022-09-17T12:07:09;14.50;99.90
68139;DHT22;54940;50.842;4.410;2022-09-17T12:09:38;14.80;99.90
68139;DHT22;54940;50.842;4.410;2022-09-17T12:12:21;14.90;99.90
68139;DHT22;54940;50.842;4.410;2022-09-17T12:14:53;15.10;99.90
68139;DHT22;54940;50.842;4.410;2022-09-17T12:17:25;15.30;99.90
68139;DHT22;54940;50.842;4.410;2022-09-17T12:19:59;15.30;99.90
68139;DHT22;54940;50.842;4.410;2022-09-17T12:22:30;15.30;99.90
68139;DHT22;54940;50.842;4.410;2022-09-17T12:24:59;15.30;99.90
68139;DHT22;54940;50.842;4.410;2022-09-17T12:30:21;15.10;99.90
68139;DHT22;54940;50.842;4.410;2022-09-17T12:36:05;15.40;99.90
68139;DHT22;54940;50.842;4.410;2022-09-17T12:50:46;15.10;99.90
68139;DHT22;54940;50.842;4.410;2022-09-17T12:53:35;15.10;99.90
68139;DHT22;54940;50.842;4.410;2022-09-17T12:58:57;14.70;99.90
68139;DHT22;54940;50.842;4.410;2022-09-17T13:01:33;14.30;99.90
68139;DHT22;54940;50.842;4.410;2022-09-17T13:04:07;14.00;99.90
68139;DHT22;54940;50.842;4.410;2022-09-17T13:07:05;13.90;99.90
68139;DHT22;54940;50.842;4.410;2022-09-17T13:09:55;14.00;99.90
68139;DHT22;54940;50.842;4.410;2022-09-17T13:12:36;13.90;99.90
68139;DHT22;54940;50.842;4.410;2022-09-17T13:15:14;13.90;99.90
68139;DHT22;54940;50.842;4.410;2022-09-17T13:23:46;13.70;99.90
68139;DHT22;54940;50.842;4.410;2022-09-17T13:26:14;13.90;99.90
68139;DHT22;54940;50.842;4.410;2022-09-17T13:28:44;14.00;99.90
68139;DHT22;54940;50.842;4.410;2022-09-17T13:31:11;13.90;99.90
68139;DHT22;54940;50.842;4.410;2022-09-17T13:33:57;13.90;99.90
68139;DHT22;54940;50.842;4.410;2022-09-17T13:36:45;13.90;99.90
68139;DHT22;54940;50.842;4.410;2022-09-17T13:39:38;13.90;99.90
68139;DHT22;54940;50.842;4.410;2022-09-17T13:42:12;13.70;99.90
68139;DHT22;54940;50.842;4.410;2022-09-17T13:44:44;13.80;99.90
68139;DHT22;54940;50.842;4.410;2022-09-17T13:47:17;14.10;99.90
68139;DHT22;54940;50.842;4.410;2022-09-17T13:49:50;14.40;99.90
68139;DHT22;54940;50.842;4.410;2022-09-17T13:54:57;14.70;99.90
68139;DHT22;54940;50.842;4.410;2022-09-17T13:57:23;14.80;99.90
68139;DHT22;54940;50.842;4.410;2022-09-17T13:59:55;14.80;99.90
68139;DHT22;54940;50.842;4.410;2022-09-17T14:02:28;15.10;99.90
68139;DHT22;54940;50.842;4.410;2022-09-17T14:04:55;15.10;99.90
68139;DHT22;54940;50.842;4.410;2022-09-17T14:07:45;15.00;99.90
68139;DHT22;54940;50.842;4.410;2022-09-17T14:17:56;15.00;99.90
68139;DHT22;54940;50.842;4.410;2022-09-17T14:20:23;15.00;99.90
68139;DHT22;54940;50.842;4.410;2022-09-17T14:22:58;15.00;99.90
68139;DHT22;54940;50.842;4.410;2022-09-17T14:25:48;15.00;99.90
68139;DHT22;54940;50.842;4.410;2022-09-17T14:28:46;14.90;99.90
68139;DHT22;54940;50.842;4.410;2022-09-17T14:31:26;14.80;99.90
68139;DHT22;54940;50.842;4.410;2022-09-17T14:33:52;14.70;99.90
68139;DHT22;54940;50.842;4.410;2022-09-17T14:36:20;14.50;99.90
68139;DHT22;54940;50.842;4.410;2022-09-17T14:38:52;14.20;99.90
68139;DHT22;54940;50.842;4.410;2022-09-17T14:41:25;14.00;99.90
68139;DHT22;54940;50.842;4.410;2022-09-17T14:44:12;13.80;99.90
68139;DHT22;54940;50.842;4.410;2022-09-17T14:47:02;13.50;99.90
68139;DHT22;54940;50.842;4.410;2022-09-17T14:49:35;13.40;99.90
68139;DHT22;54940;50.842;4.410;2022-09-17T14:52:05;13.40;99.90
68139;DHT22;54940;50.842;4.410;2022-09-17T14:54:42;13.30;99.90
68139;DHT22;54940;50.842;4.410;2022-09-17T15:02:37;13.50;99.90
68139;DHT22;54940;50.842;4.410;2022-09-17T15:08:03;13.50;99.90
68139;DHT22;54940;50.842;4.410;2022-09-17T15:10:29;13.50;99.90
68139;DHT22;54940;50.842;4.410;2022-09-17T15:12:55;13.50;99.90
68139;DHT22;54940;50.842;4.410;2022-09-17T15:15:24;13.60;99.90
68139;DHT22;54940;50.842;4.410;2022-09-17T15:17:52;13.60;99.90
68139;DHT22;54940;50.842;4.410;2022-09-17T15:20:28;13.70;99.90
68139;DHT22;54940;50.842;4.410;2022-09-17T15:23:21;13.70;99.90
68139;DHT22;54940;50.842;4.410;2022-09-17T15:25:51;13.60;99.90
68139;DHT22;54940;50.842;4.410;2022-09-17T15:28:40;13.60;99.90
68139;DHT22;54940;50.842;4.410;2022-09-17T15:31:16;13.50;99.90
68139;DHT22;54940;50.842;4.410;2022-09-17T15:33:43;13.50;99.90
68139;DHT22;54940;50.842;4.410;2022-09-17T15:36:23;13.50;99.90
68139;DHT22;54940;50.842;4.410;2022-09-17T15:38:50;13.40;99.90
68139;DHT22;54940;50.842;4.410;2022-09-17T15:41:22;13.50;99.90
68139;DHT22;54940;50.842;4.410;2022-09-17T15:43:48;13.40;99.90
68139;DHT22;54940;50.842;4.410;2022-09-17T15:46:26;13.40;99.90
68139;DHT22;54940;50.842;4.410;2022-09-17T15:49:02;13.40;99.90
68139;DHT22;54940;50.842;4.410;2022-09-17T15:51:32;13.50;99.90
68139;DHT22;54940;50.842;4.410;2022-09-17T15:54:03;13.50;99.90
68139;DHT22;54940;50.842;4.410;2022-09-17T15:56:32;13.50;99.90
68139;DHT22;54940;50.842;4.410;2022-09-17T15:59:04;13.50;99.90
68139;DHT22;54940;50.842;4.410;2022-09-17T16:04:19;13.60;99.90
68139;DHT22;54940;50.842;4.410;2022-09-17T16:12:06;13.30;99.90
68139;DHT22;54940;50.842;4.410;2022-09-17T16:14:31;13.40;99.90
68139;DHT22;54940;50.842;4.410;2022-09-17T16:16:57;13.50;99.90
68139;DHT22;54940;50.842;4.410;2022-09-17T16:19:24;13.50;99.90
68139;DHT22;54940;50.842;4.410;2022-09-17T16:21:50;13.50;99.90
68139;DHT22;54940;50.842;4.410;2022-09-17T16:24:15;13.40;99.90
68139;DHT22;54940;50.842;4.410;2022-09-17T16:26:41;13.60;99.90
68139;DHT22;54940;50.842;4.410;2022-09-17T16:29:13;13.50;99.90
68139;DHT22;54940;50.842;4.410;2022-09-17T16:31:40;13.50;99.90
68139;DHT22;54940;50.842;4.410;2022-09-17T16:34:05;13.50;99.90
68139;DHT22;54940;50.842;4.410;2022-09-17T16:36:32;13.40;99.90
68139;DHT22;54940;50.842;4.410;2022-09-17T16:38:58;13.40;99.90
68139;DHT22;54940;50.842;4.410;2022-09-17T16:41:24;13.50;99.90
68139;DHT22;54940;50.842;4.410;2022-09-17T16:43:49;13.40;99.90
68139;DHT22;54940;50.842;4.410;2022-09-17T16:46:15;13.30;99.90
68139;DHT22;54940;50.842;4.410;2022-09-17T16:48:40;13.30;99.90
68139;DHT22;54940;50.842;4.410;2022-09-17T16:51:12;13.20;99.90
68139;DHT22;54940;50.842;4.410;2022-09-17T16:53:38;13.10;99.90
68139;DHT22;54940;50.842;4.410;2022-09-17T16:56:09;13.00;99.90
68139;DHT22;54940;50.842;4.410;2022-09-17T16:58:36;13.00;99.90
68139;DHT22;54940;50.842;4.410;2022-09-17T17:01:09;13.10;99.90
68139;DHT22;54940;50.842;4.410;2022-09-17T17:03:35;13.00;99.90
68139;DHT22;54940;50.842;4.410;2022-09-17T17:06:01;13.10;99.90
68139;DHT22;54940;50.842;4.410;2022-09-17T17:08:27;13.10;99.90
68139;DHT22;54940;50.842;4.410;2022-09-17T17:10:53;13.00;99.90
68139;DHT22;54940;50.842;4.410;2022-09-17T17:13:19;13.00;99.90
68139;DHT22;54940;50.842;4.410;2022-09-17T17:15:45;13.00;99.90
68139;DHT22;54940;50.842;4.410;2022-09-17T17:18:11;13.00;99.90
68139;DHT22;54940;50.842;4.410;2022-09-17T17:20:36;13.00;99.90
68139;DHT22;54940;50.842;4.410;2022-09-17T17:23:02;13.00;99.90
68139;DHT22;54940;50.842;4.410;2022-09-17T17:25:29;13.00;99.90
68139;DHT22;54940;50.842;4.410;2022-09-17T17:27:55;12.90;99.90
68139;DHT22;54940;50.842;4.410;2022-09-17T17:30:21;12.90;99.90
68139;DHT22;54940;50.842;4.410;2022-09-17T17:32:51;13.00;99.90
68139;DHT22;54940;50.842;4.410;2022-09-17T17:35:18;13.00;99.90
68139;DHT22;54940;50.842;4.410;2022-09-17T17:37:44;13.00;99.90
68139;DHT22;54940;50.842;4.410;2022-09-17T17:40:09;12.80;99.90
68139;DHT22;54940;50.842;4.410;2022-09-17T17:42:36;12.80;99.90
68139;DHT22;54940;50.842;4.410;2022-09-17T17:45:09;12.80;99.90
68139;DHT22;54940;50.842;4.410;2022-09-17T17:47:35;12.80;99.90
68139;DHT22;54940;50.842;4.410;2022-09-17T17:50:01;12.70;99.90
68139;DHT22;54940;50.842;4.410;2022-09-17T17:52:27;12.70;99.90
68139;DHT22;54940;50.842;4.410;2022-09-17T17:54:53;12.80;99.90
68139;DHT22;54940;50.842;4.410;2022-09-17T17:57:18;12.80;99.90
68139;DHT22;54940;50.842;4.410;2022-09-17T17:59:44;12.70;99.90
68139;DHT22;54940;50.842;4.410;2022-09-17T18:02:10;12.70;99.90
68139;DHT22;54940;50.842;4.410;2022-09-17T18:04:36;12.60;99.90
68139;DHT22;54940;50.842;4.410;2022-09-17T18:07:02;12.60;99.90
68139;DHT22;54940;50.842;4.410;2022-09-17T18:09:27;12.60;99.90
68139;DHT22;54940;50.842;4.410;2022-09-17T18:11:53;12.60;99.90
68139;DHT22;54940;50.842;4.410;2022-09-17T18:14:19;12.50;99.90
68139;DHT22;54940;50.842;4.410;2022-09-17T18:16:45;12.60;99.90
68139;DHT22;54940;50.842;4.410;2022-09-17T18:19:10;12.60;99.90
68139;DHT22;54940;50.842;4.410;2022-09-17T18:21:36;12.50;99.90
68139;DHT22;54940;50.842;4.410;2022-09-17T18:24:02;12.50;99.90
68139;DHT22;54940;50.842;4.410;2022-09-17T18:26:28;12.50;99.90
68139;DHT22;54940;50.842;4.410;2022-09-17T18:28:54;12.50;99.90
68139;DHT22;54940;50.842;4.410;2022-09-17T18:31:28;12.40;99.90
68139;DHT22;54940;50.842;4.410;2022-09-17T18:36:23;12.60;99.90
68139;DHT22;54940;50.842;4.410;2022-09-17T18:38:55;12.60;99.90
68139;DHT22;54940;50.842;4.410;2022-09-17T18:41:23;12.60;99.90
68139;DHT22;54940;50.842;4.410;2022-09-17T18:43:48;12.60;99.90